Terminal Aerodrome Forecast
Issued by NWS Brownsville, TX

Home | Current Version | Previous Version | Text Only | Print | Product List | Glossary On
Versions: 1 2 3 4 5 6 7 8 9 10 11 12 13 14 15 16 17 18 19 20 21
000
FTUS44 KBRO 200000 AAA
TAFMFE
TAF AMD
KMFE 200024Z 2000/2024 12010KT P6SM VCTS SCT035CB
      TEMPO 2000/2001 1/2SM +TSRA BKN018CB
     FM200200 12006KT P6SM SCT020 BKN150
      TEMPO 2008/2012 4SM BR
     FM201800 14010G15KT P6SM VCSH SCT030=

USA.gov is the U.S. government's official web portal to all federal, state and local government web resources and services.